createdAt,value
2023-03-29T00:01:05.834Z,30.97
2023-03-29T00:03:50.350Z,31.58
2023-03-29T00:06:22.560Z,31.62
2023-03-29T00:08:56.183Z,30.99
2023-03-29T00:11:23.477Z,30.97
2023-03-29T00:13:53.690Z,31.41
2023-03-29T00:16:25.728Z,31.21
2023-03-29T00:18:55.598Z,31.02
2023-03-29T00:21:38.149Z,30.84
2023-03-29T00:24:08.129Z,30.94
2023-03-29T00:26:40.703Z,31.31
2023-03-29T00:29:10.091Z,31.29
2023-03-29T00:31:38.050Z,31.22
2023-03-29T00:34:04.815Z,31.39
2023-03-29T00:36:33.087Z,31.14
2023-03-29T00:39:03.071Z,31.22
2023-03-29T00:41:35.666Z,31.02
2023-03-29T00:44:12.974Z,30.78
2023-03-29T00:46:40.050Z,31.58
2023-03-29T00:49:17.790Z,31.25
2023-03-29T00:51:45.070Z,31.49
2023-03-29T00:54:26.242Z,31.29
2023-03-29T00:57:00.601Z,30.28
2023-03-29T00:59:35.824Z,30.31
2023-03-29T01:02:07.445Z,30.37
2023-03-29T01:05:17.525Z,30.36
2023-03-29T01:07:58.297Z,30.53
2023-03-29T01:10:50.635Z,31.03
2023-03-29T01:13:29.723Z,30.89
2023-03-29T01:18:44.375Z,30.90
2023-03-29T01:21:17.166Z,30.74
2023-03-29T01:24:11.069Z,30.77
2023-03-29T01:26:56.977Z,30.93
2023-03-29T01:29:50.242Z,31.48
2023-03-29T01:32:37.859Z,31.38
2023-03-29T01:35:10.663Z,30.93
2023-03-29T01:38:13.680Z,30.48
2023-03-29T01:40:43.235Z,30.79
2023-03-29T01:43:34.378Z,31.05
2023-03-29T01:46:27.220Z,30.57
2023-03-29T01:49:05.657Z,30.83
2023-03-29T01:51:45.782Z,30.78
2023-03-29T01:54:53.164Z,31.04
2023-03-29T01:57:30.368Z,30.62
2023-03-29T02:00:05.040Z,30.99
2023-03-29T02:02:33.016Z,30.93
2023-03-29T02:05:01.347Z,30.69
2023-03-29T02:07:32.482Z,30.73
2023-03-29T02:10:16.758Z,30.61
2023-03-29T02:15:35.159Z,30.69
2023-03-29T02:18:04.119Z,30.74
2023-03-29T02:20:52.210Z,31.71
2023-03-29T02:23:35.460Z,30.26
2023-03-29T02:26:16.681Z,30.81
2023-03-29T02:28:43.518Z,31.02
2023-03-29T02:31:23.345Z,30.88
2023-03-29T02:34:06.733Z,30.87
2023-03-29T02:36:55.147Z,30.59
2023-03-29T02:39:25.420Z,31.47
2023-03-29T02:42:00.789Z,31.81
2023-03-29T02:44:33.526Z,31.54
2023-03-29T02:47:33.666Z,31.13
2023-03-29T02:50:14.628Z,30.96
2023-03-29T02:52:54.150Z,30.72
2023-03-29T02:55:35.706Z,31.34
2023-03-29T02:58:10.490Z,30.71
2023-03-29T03:00:47.454Z,31.22
2023-03-29T03:03:20.503Z,31.18
2023-03-29T03:05:54.946Z,31.66
2023-03-29T03:08:43.114Z,32.47
2023-03-29T03:11:19.695Z,31.75
2023-03-29T03:13:59.689Z,32.13
2023-03-29T03:16:29.976Z,32.42
2023-03-29T03:19:05.312Z,33.25
2023-03-29T03:21:41.382Z,33.51
2023-03-29T03:24:10.770Z,33.21
2023-03-29T03:26:38.943Z,33.62
2023-03-29T03:29:06.369Z,34.36
2023-03-29T03:31:33.733Z,33.67
2023-03-29T03:34:07.639Z,34.39
2023-03-29T03:36:38.701Z,34.25
2023-03-29T03:39:07.371Z,34.13
2023-03-29T03:42:00.476Z,34.49
2023-03-29T03:44:34.651Z,34.80
2023-03-29T03:47:05.980Z,34.70
2023-03-29T03:49:33.070Z,34.92
2023-03-29T03:52:20.670Z,34.84
2023-03-29T03:54:48.458Z,33.65
2023-03-29T03:57:15.221Z,33.37
2023-03-29T03:59:45.048Z,34.31
2023-03-29T04:02:11.724Z,36.14
2023-03-29T04:04:39.498Z,35.45
2023-03-29T04:07:09.722Z,35.95
2023-03-29T04:09:37.801Z,35.61
2023-03-29T04:12:08.555Z,35.37
2023-03-29T04:14:42.588Z,34.16
2023-03-29T04:17:14.920Z,34.18
2023-03-29T04:19:51.722Z,36.44
2023-03-29T04:22:18.520Z,35.99
2023-03-29T04:24:45.254Z,36.33
2023-03-29T04:27:12.022Z,36.23
2023-03-29T04:29:39.342Z,36.85
2023-03-29T04:32:06.225Z,36.33
2023-03-29T04:34:45.673Z,35.63
2023-03-29T04:37:17.572Z,35.70
2023-03-29T04:39:53.529Z,37.01
2023-03-29T04:42:23.601Z,34.84
2023-03-29T04:45:00.784Z,36.23
2023-03-29T04:47:39.664Z,36.00
2023-03-29T04:50:08.320Z,35.91
2023-03-29T04:53:24.567Z,36.48
2023-03-29T04:56:08.687Z,35.72
2023-03-29T04:58:35.332Z,36.74
2023-03-29T05:01:12.648Z,37.52
2023-03-29T05:04:20.486Z,36.54
2023-03-29T05:06:47.570Z,36.09
2023-03-29T05:09:39.140Z,35.95
2023-03-29T05:12:06.636Z,36.26
2023-03-29T05:14:45.893Z,36.10
2023-03-29T05:17:29.118Z,36.14
2023-03-29T05:20:03.007Z,36.26
2023-03-29T05:22:33.047Z,36.72
2023-03-29T05:25:05.214Z,36.08
2023-03-29T05:27:35.230Z,37.62
2023-03-29T05:30:02.007Z,37.11
2023-03-29T05:32:30.319Z,36.67
2023-03-29T05:34:57.026Z,36.51
2023-03-29T05:37:23.621Z,37.71
2023-03-29T05:40:10.255Z,38.26
2023-03-29T05:42:41.232Z,38.56
2023-03-29T05:45:08.460Z,38.28
2023-03-29T05:47:35.393Z,39.08
2023-03-29T05:50:02.487Z,39.51
2023-03-29T05:52:29.315Z,40.04
2023-03-29T05:54:57.003Z,39.28
2023-03-29T05:57:33.350Z,40.22
2023-03-29T06:00:30.413Z,39.92
2023-03-29T06:03:54.971Z,40.53
2023-03-29T06:06:38.953Z,39.17
2023-03-29T06:09:10.214Z,38.38
2023-03-29T06:11:42.943Z,38.49
2023-03-29T06:14:13.322Z,38.94
2023-03-29T06:16:54.342Z,39.62
2023-03-29T06:23:02.207Z,37.13
2023-03-29T06:25:29.042Z,36.24
2023-03-29T06:27:55.780Z,36.22
2023-03-29T06:30:26.056Z,34.76
2023-03-29T06:33:09.098Z,34.44
2023-03-29T06:35:54.790Z,34.80
2023-03-29T06:38:26.394Z,34.21
2023-03-29T06:41:22.402Z,33.56
2023-03-29T06:43:55.226Z,33.81
2023-03-29T06:46:45.472Z,32.83
2023-03-29T06:49:42.241Z,32.54
2023-03-29T06:52:23.772Z,32.67
2023-03-29T06:54:52.296Z,32.49
2023-03-29T06:57:36.496Z,31.98
2023-03-29T07:00:13.546Z,32.04
2023-03-29T07:02:45.427Z,32.02
2023-03-29T07:05:36.647Z,32.26
2023-03-29T07:08:12.401Z,31.72
2023-03-29T07:10:47.203Z,32.10
2023-03-29T07:13:19.881Z,31.71
2023-03-29T07:15:46.668Z,31.72
2023-03-29T07:18:31.100Z,32.23
2023-03-29T07:21:12.856Z,32.21
2023-03-29T07:23:42.387Z,31.89
2023-03-29T07:26:09.561Z,31.58
2023-03-29T07:28:41.679Z,31.73
2023-03-29T07:31:11.256Z,32.47
2023-03-29T07:33:42.687Z,31.81
2023-03-29T07:36:10.212Z,31.82
2023-03-29T07:38:41.826Z,31.82
2023-03-29T07:41:08.758Z,32.09
2023-03-29T07:46:23.199Z,31.33
2023-03-29T07:51:35.997Z,30.75
2023-03-29T07:54:02.822Z,30.00
2023-03-29T07:56:35.355Z,29.76
2023-03-29T07:59:09.880Z,29.83
2023-03-29T08:01:44.741Z,29.73
2023-03-29T08:04:11.538Z,29.46
2023-03-29T08:06:40.869Z,29.48
2023-03-29T08:09:14.573Z,29.40
2023-03-29T08:11:44.580Z,29.42
2023-03-29T08:14:22.293Z,29.07
2023-03-29T08:16:55.251Z,29.24
2023-03-29T08:19:50.992Z,28.54
2023-03-29T08:22:18.929Z,28.60
2023-03-29T08:24:47.247Z,28.45
2023-03-29T08:27:17.024Z,27.93
2023-03-29T08:29:46.365Z,28.49
2023-03-29T08:32:15.248Z,29.35
2023-03-29T08:34:47.499Z,28.84
2023-03-29T08:37:17.414Z,28.76
2023-03-29T08:39:44.234Z,29.44
2023-03-29T08:42:47.447Z,28.55
2023-03-29T08:48:36.806Z,29.60
2023-03-29T08:51:10.440Z,30.00
2023-03-29T08:53:50.246Z,29.68
2023-03-29T08:56:44.395Z,30.04
2023-03-29T08:59:44.673Z,29.51
2023-03-29T09:02:26.488Z,28.23
2023-03-29T09:05:03.522Z,29.12
2023-03-29T09:07:42.773Z,28.13
2023-03-29T09:10:18.461Z,28.36
2023-03-29T09:13:11.899Z,28.36
2023-03-29T09:16:12.524Z,27.57
2023-03-29T09:19:05.207Z,27.54
2023-03-29T09:21:57.892Z,27.83
2023-03-29T09:24:24.675Z,27.98
2023-03-29T09:27:41.503Z,27.98
2023-03-29T09:30:28.698Z,28.13
2023-03-29T09:33:21.766Z,27.78
2023-03-29T09:36:05.742Z,27.96
2023-03-29T09:38:48.057Z,28.03
2023-03-29T09:41:54.522Z,28.05
2023-03-29T09:44:31.377Z,27.83
2023-03-29T09:47:21.897Z,27.76
2023-03-29T09:49:57.685Z,28.18
2023-03-29T09:52:28.196Z,27.72
2023-03-29T09:55:03.935Z,27.96
2023-03-29T09:57:39.675Z,27.85
2023-03-29T10:00:14.371Z,27.54
2023-03-29T10:02:41.382Z,27.64
2023-03-29T10:05:11.572Z,28.27
2023-03-29T10:07:49.066Z,28.56
2023-03-29T10:10:23.542Z,28.82
2023-03-29T10:13:04.071Z,28.69
2023-03-29T10:15:59.179Z,28.43
2023-03-29T10:18:27.797Z,28.04
2023-03-29T10:21:06.028Z,28.40
2023-03-29T10:23:39.289Z,28.74
2023-03-29T10:26:25.186Z,28.38
2023-03-29T10:28:57.376Z,27.60
2023-03-29T10:31:25.371Z,28.43
2023-03-29T10:33:57.394Z,28.06
2023-03-29T10:36:27.037Z,28.23
2023-03-29T10:38:58.336Z,27.74
2023-03-29T10:42:04.182Z,28.05
2023-03-29T10:44:40.057Z,27.94
2023-03-29T10:47:20.800Z,27.53
2023-03-29T10:50:04.068Z,27.79
2023-03-29T10:52:30.759Z,28.37
2023-03-29T10:58:48.737Z,28.03
2023-03-29T11:01:28.895Z,28.64
2023-03-29T11:03:59.051Z,28.34
2023-03-29T11:07:12.252Z,27.69
2023-03-29T11:09:53.242Z,27.44
2023-03-29T11:12:54.067Z,27.35
2023-03-29T11:15:59.408Z,27.62
2023-03-29T11:18:54.924Z,27.28
2023-03-29T11:21:48.549Z,28.02
2023-03-29T11:24:18.888Z,28.27
2023-03-29T11:27:36.696Z,27.90
2023-03-29T11:30:45.044Z,27.61
2023-03-29T11:33:37.730Z,28.11
2023-03-29T11:36:16.821Z,27.99
2023-03-29T11:39:10.402Z,27.68
2023-03-29T11:41:43.502Z,27.29
2023-03-29T11:44:31.873Z,27.45
2023-03-29T11:47:44.746Z,28.30
2023-03-29T11:51:11.430Z,28.53
2023-03-29T11:54:10.944Z,28.27
2023-03-29T11:56:46.943Z,28.23
2023-03-29T12:02:39.285Z,28.07
2023-03-29T12:05:24.126Z,27.92
2023-03-29T12:08:16.828Z,28.11
2023-03-29T12:10:52.722Z,27.79
2023-03-29T12:13:47.460Z,27.53
2023-03-29T12:16:23.275Z,27.56
2023-03-29T12:18:57.310Z,27.54
2023-03-29T12:21:29.850Z,27.48
2023-03-29T12:23:57.568Z,27.74
2023-03-29T12:26:40.631Z,28.06
2023-03-29T12:29:43.546Z,27.95
2023-03-29T12:32:23.339Z,28.21
2023-03-29T12:35:21.062Z,28.38
2023-03-29T12:38:25.509Z,28.85
2023-03-29T12:41:08.100Z,28.79
2023-03-29T12:43:40.165Z,29.19
2023-03-29T12:46:26.749Z,29.44
2023-03-29T12:48:57.585Z,29.62
2023-03-29T12:51:33.130Z,30.11
2023-03-29T12:54:28.065Z,30.03
2023-03-29T12:57:04.728Z,30.03
2023-03-29T12:59:34.157Z,30.37
2023-03-29T13:02:37.830Z,30.32
2023-03-29T13:05:05.711Z,30.29
2023-03-29T13:07:46.143Z,30.37
2023-03-29T13:11:01.634Z,30.83
2023-03-29T13:13:48.586Z,30.60
2023-03-29T13:16:18.255Z,30.73
2023-03-29T13:19:00.389Z,30.85
2023-03-29T13:21:51.066Z,31.39
2023-03-29T13:24:55.554Z,31.35
2023-03-29T13:27:26.378Z,31.36
2023-03-29T13:30:11.742Z,31.53
2023-03-29T13:33:09.446Z,31.55
2023-03-29T13:35:54.816Z,31.80
2023-03-29T13:38:35.999Z,31.39
2023-03-29T13:41:05.367Z,31.51
2023-03-29T13:43:52.679Z,31.95
2023-03-29T13:46:25.800Z,32.58
2023-03-29T13:49:31.765Z,32.38
2023-03-29T13:52:21.713Z,32.25
2023-03-29T13:55:14.185Z,32.63
2023-03-29T13:58:02.416Z,32.95
2023-03-29T14:00:53.945Z,33.13
2023-03-29T14:03:36.556Z,32.87
2023-03-29T14:06:06.453Z,33.32
2023-03-29T14:08:42.360Z,33.61
2023-03-29T14:11:24.326Z,33.46
2023-03-29T14:14:02.529Z,34.05
2023-03-29T14:16:36.104Z,33.86
2023-03-29T14:19:21.604Z,34.03
2023-03-29T14:21:50.497Z,34.60
2023-03-29T14:24:21.589Z,34.86
2023-03-29T14:26:48.440Z,34.70
2023-03-29T14:29:15.880Z,35.42
2023-03-29T14:31:46.228Z,34.65
2023-03-29T14:34:37.784Z,34.84
2023-03-29T14:37:05.948Z,34.61
2023-03-29T14:39:35.246Z,34.82
2023-03-29T14:42:34.888Z,35.51
2023-03-29T14:45:06.102Z,36.09
2023-03-29T14:47:37.071Z,36.52
2023-03-29T14:50:05.029Z,36.23
2023-03-29T14:52:35.104Z,36.06
2023-03-29T14:55:05.413Z,36.77
2023-03-29T14:57:49.441Z,36.89
2023-03-29T15:00:47.727Z,36.89
2023-03-29T15:03:27.639Z,36.89
2023-03-29T15:05:59.086Z,36.91
2023-03-29T15:08:37.977Z,36.79
2023-03-29T15:11:17.788Z,37.00
2023-03-29T15:13:46.813Z,37.06
2023-03-29T15:16:22.361Z,37.57
2023-03-29T15:19:04.049Z,37.45
2023-03-29T15:21:36.495Z,37.81
2023-03-29T15:24:04.743Z,37.84
2023-03-29T15:26:45.668Z,37.89
2023-03-29T15:29:23.838Z,38.05
2023-03-29T15:31:59.156Z,38.41
2023-03-29T15:34:30.731Z,38.24
2023-03-29T15:36:58.089Z,38.63
2023-03-29T15:39:27.812Z,38.29
2023-03-29T15:41:57.094Z,38.79
2023-03-29T15:44:33.642Z,38.99
2023-03-29T15:47:14.034Z,38.68
2023-03-29T15:49:40.708Z,38.66
2023-03-29T15:52:07.501Z,38.82
2023-03-29T15:54:45.627Z,38.88
2023-03-29T15:57:16.309Z,39.35
2023-03-29T15:59:43.893Z,39.99
2023-03-29T16:02:18.934Z,39.94
2023-03-29T16:04:46.560Z,39.85
2023-03-29T16:07:22.368Z,40.11
2023-03-29T16:09:56.657Z,40.54
2023-03-29T16:12:23.410Z,40.72
2023-03-29T16:14:58.134Z,40.31
2023-03-29T16:17:34.803Z,40.74
2023-03-29T16:20:11.638Z,41.03
2023-03-29T16:22:38.318Z,40.45
2023-03-29T16:25:16.313Z,40.99
2023-03-29T16:27:47.062Z,40.89
2023-03-29T16:30:14.121Z,40.56
2023-03-29T16:32:41.678Z,41.09
2023-03-29T16:35:32.127Z,41.47
2023-03-29T16:38:00.977Z,41.22
2023-03-29T16:40:28.078Z,41.26
2023-03-29T16:42:54.887Z,40.88
2023-03-29T16:45:21.944Z,41.40
2023-03-29T16:47:48.839Z,41.82
2023-03-29T16:50:26.340Z,41.60
2023-03-29T16:52:53.129Z,41.69
2023-03-29T16:55:22.000Z,41.67
2023-03-29T16:57:54.005Z,41.76
2023-03-29T17:03:02.189Z,42.59
2023-03-29T17:05:38.052Z,42.77
2023-03-29T17:08:04.807Z,42.73
2023-03-29T17:11:14.704Z,42.59
2023-03-29T17:16:53.681Z,42.21
2023-03-29T17:19:22.906Z,42.14
2023-03-29T17:21:52.333Z,42.09
2023-03-29T17:24:19.002Z,41.60
2023-03-29T17:26:46.061Z,41.96
2023-03-29T17:29:12.840Z,42.12
2023-03-29T17:31:47.000Z,42.27
2023-03-29T17:34:15.737Z,42.42
2023-03-29T17:36:42.469Z,42.60
2023-03-29T17:39:18.035Z,42.51
2023-03-29T17:41:46.110Z,42.50
2023-03-29T17:44:12.812Z,42.58
2023-03-29T17:46:39.711Z,42.17
2023-03-29T17:49:06.539Z,42.38
2023-03-29T17:51:37.244Z,42.81
2023-03-29T17:54:06.878Z,43.25
2023-03-29T17:56:34.178Z,43.97
2023-03-29T17:59:01.223Z,44.72
2023-03-29T18:01:32.168Z,45.53
2023-03-29T18:03:59.173Z,45.39
2023-03-29T18:06:28.710Z,45.64
2023-03-29T18:09:01.837Z,46.27
2023-03-29T18:11:29.493Z,45.91
2023-03-29T18:13:59.563Z,46.68
2023-03-29T18:16:30.117Z,46.12
2023-03-29T18:19:00.724Z,46.55
2023-03-29T18:21:37.524Z,46.65
2023-03-29T18:24:11.002Z,46.73
2023-03-29T18:26:41.066Z,46.72
2023-03-29T18:29:59.049Z,47.27
2023-03-29T18:32:36.142Z,47.04
2023-03-29T18:35:11.577Z,47.31
2023-03-29T18:37:47.091Z,48.03
2023-03-29T18:40:15.793Z,48.48
2023-03-29T18:42:46.080Z,48.64
2023-03-29T18:45:16.135Z,49.00
2023-03-29T18:47:42.776Z,49.16
2023-03-29T18:50:10.503Z,49.11
2023-03-29T18:52:37.819Z,49.21
2023-03-29T18:55:10.823Z,49.19
2023-03-29T18:57:37.618Z,49.53
2023-03-29T19:00:10.866Z,49.82
2023-03-29T19:02:44.171Z,49.61
2023-03-29T19:05:11.403Z,49.54
2023-03-29T19:07:49.508Z,49.83
2023-03-29T19:10:24.119Z,49.42
2023-03-29T19:12:51.684Z,49.74
2023-03-29T19:15:28.969Z,49.63
2023-03-29T19:17:57.094Z,49.27
2023-03-29T19:20:27.282Z,49.58
2023-03-29T19:23:14.869Z,50.17
2023-03-29T19:25:58.186Z,50.28
2023-03-29T19:28:28.603Z,50.16
2023-03-29T19:30:57.898Z,50.10
2023-03-29T19:33:24.647Z,50.42
2023-03-29T19:35:52.634Z,50.13
2023-03-29T19:38:34.836Z,49.91
2023-03-29T19:41:19.404Z,50.74
2023-03-29T19:44:11.199Z,50.44
2023-03-29T19:46:50.421Z,50.81
2023-03-29T19:49:17.384Z,51.33
2023-03-29T19:51:45.197Z,51.31
2023-03-29T19:57:10.703Z,50.97
2023-03-29T19:59:43.117Z,51.30
2023-03-29T20:02:25.496Z,52.22
2023-03-29T20:04:54.077Z,52.33
2023-03-29T20:07:21.138Z,51.94
2023-03-29T20:09:49.595Z,51.92
2023-03-29T20:12:32.980Z,52.39
2023-03-29T20:15:00.275Z,52.32
2023-03-29T20:17:29.604Z,52.32
2023-03-29T20:20:11.094Z,52.72
2023-03-29T20:22:48.070Z,52.49
2023-03-29T20:25:21.085Z,52.38
2023-03-29T20:27:49.685Z,52.05
2023-03-29T20:30:22.581Z,52.40
2023-03-29T20:32:52.324Z,52.68
2023-03-29T20:35:19.074Z,52.58
2023-03-29T20:37:48.768Z,53.36
2023-03-29T20:40:16.822Z,52.78
2023-03-29T20:42:46.404Z,53.26
2023-03-29T20:45:20.394Z,52.72
2023-03-29T20:48:06.836Z,52.55
2023-03-29T20:50:42.142Z,53.08
2023-03-29T20:53:08.841Z,52.87
2023-03-29T20:55:45.183Z,52.86
2023-03-29T20:58:12.101Z,53.09
2023-03-29T21:00:42.169Z,53.84
2023-03-29T21:03:12.792Z,54.10
2023-03-29T21:08:29.054Z,54.22
2023-03-29T21:11:17.351Z,53.87
2023-03-29T21:13:44.224Z,54.08
2023-03-29T21:16:11.699Z,54.43
2023-03-29T21:18:47.873Z,54.18
2023-03-29T21:21:16.949Z,54.12
2023-03-29T21:23:48.399Z,54.43
2023-03-29T21:26:27.353Z,55.09
2023-03-29T21:28:57.893Z,54.75
2023-03-29T21:31:47.339Z,54.46
2023-03-29T21:34:22.704Z,54.50
2023-03-29T21:36:50.184Z,54.66
2023-03-29T21:39:19.804Z,55.36
2023-03-29T21:41:46.477Z,55.89
2023-03-29T21:44:18.572Z,55.80
2023-03-29T21:46:48.639Z,56.37
2023-03-29T21:49:16.090Z,56.49
2023-03-29T21:51:42.714Z,56.60
2023-03-29T21:54:12.044Z,56.42
2023-03-29T21:56:39.686Z,56.16
2023-03-29T21:59:09.587Z,56.57
2023-03-29T22:01:48.234Z,56.28
2023-03-29T22:04:25.811Z,56.69
2023-03-29T22:07:15.504Z,56.81
2023-03-29T22:09:55.212Z,56.58
2023-03-29T22:12:34.858Z,56.67
2023-03-29T22:15:08.822Z,56.77
2023-03-29T22:17:37.619Z,56.92
2023-03-29T22:20:29.525Z,56.79
2023-03-29T22:25:40.923Z,57.14
2023-03-29T22:28:39.136Z,57.39
2023-03-29T22:31:14.767Z,57.11
2023-03-29T22:33:48.815Z,57.35
2023-03-29T22:36:33.567Z,57.66
2023-03-29T22:39:03.863Z,58.15
2023-03-29T22:41:30.694Z,58.09
2023-03-29T22:44:26.257Z,58.01
2023-03-29T22:46:55.811Z,58.55
2023-03-29T22:49:27.919Z,58.28
2023-03-29T22:51:56.626Z,58.72
2023-03-29T22:54:32.886Z,59.17
2023-03-29T22:57:05.808Z,58.92
2023-03-29T22:59:32.523Z,58.25
2023-03-29T23:02:01.587Z,58.62
2023-03-29T23:04:39.519Z,58.68
2023-03-29T23:07:06.691Z,58.54
2023-03-29T23:09:33.696Z,58.69
2023-03-29T23:12:05.581Z,58.86
2023-03-29T23:14:34.040Z,58.76
2023-03-29T23:17:05.342Z,58.59
2023-03-29T23:19:35.011Z,59.03
2023-03-29T23:22:04.163Z,58.99
2023-03-29T23:24:30.924Z,58.56
2023-03-29T23:27:07.848Z,59.05
2023-03-29T23:29:42.198Z,58.75
2023-03-29T23:32:11.609Z,58.28
2023-03-29T23:35:00.725Z,58.74
2023-03-29T23:37:35.171Z,58.74
2023-03-29T23:40:44.373Z,58.71
2023-03-29T23:43:11.480Z,59.30
2023-03-29T23:45:45.493Z,59.48
2023-03-29T23:48:14.721Z,59.10
2023-03-29T23:50:46.462Z,59.10
2023-03-29T23:53:16.007Z,59.26
2023-03-29T23:55:43.659Z,59.31
2023-03-29T23:58:16.705Z,59.46
